sensor_id;sensor_type;location;lat;lon;timestamp;P1;durP1;ratioP1;P2;durP2;ratioP2
21356;SDS011;10836;53.068;18.234;2022-12-18T00:01:30;82.33;;;34.20;;
21356;SDS011;10836;53.068;18.234;2022-12-18T00:04:00;92.47;;;37.67;;
21356;SDS011;10836;53.068;18.234;2022-12-18T00:06:29;86.00;;;36.33;;
21356;SDS011;10836;53.068;18.234;2022-12-18T00:08:57;93.43;;;36.57;;
21356;SDS011;10836;53.068;18.234;2022-12-18T00:11:27;82.60;;;33.70;;
21356;SDS011;10836;53.068;18.234;2022-12-18T00:13:56;83.33;;;35.27;;
21356;SDS011;10836;53.068;18.234;2022-12-18T00:16:25;83.83;;;33.47;;
21356;SDS011;10836;53.068;18.234;2022-12-18T00:18:55;77.27;;;33.73;;
21356;SDS011;10836;53.068;18.234;2022-12-18T00:21:22;73.10;;;31.27;;
21356;SDS011;10836;53.068;18.234;2022-12-18T00:23:50;81.23;;;32.77;;
21356;SDS011;10836;53.068;18.234;2022-12-18T00:26:22;73.33;;;31.40;;
21356;SDS011;10836;53.068;18.234;2022-12-18T00:28:58;83.30;;;32.70;;
21356;SDS011;10836;53.068;18.234;2022-12-18T00:31:26;85.80;;;33.33;;
21356;SDS011;10836;53.068;18.234;2022-12-18T00:33:54;82.00;;;32.27;;
21356;SDS011;10836;53.068;18.234;2022-12-18T00:36:26;85.57;;;31.77;;
21356;SDS011;10836;53.068;18.234;2022-12-18T00:38:55;84.33;;;33.17;;
21356;SDS011;10836;53.068;18.234;2022-12-18T00:41:24;85.70;;;34.27;;
21356;SDS011;10836;53.068;18.234;2022-12-18T00:44:11;76.43;;;31.80;;
21356;SDS011;10836;53.068;18.234;2022-12-18T00:46:41;82.07;;;31.57;;
21356;SDS011;10836;53.068;18.234;2022-12-18T00:49:09;79.57;;;31.53;;
21356;SDS011;10836;53.068;18.234;2022-12-18T00:51:36;77.80;;;31.60;;
21356;SDS011;10836;53.068;18.234;2022-12-18T00:54:03;87.33;;;33.03;;
21356;SDS011;10836;53.068;18.234;2022-12-18T00:56:31;81.27;;;32.23;;
21356;SDS011;10836;53.068;18.234;2022-12-18T00:58:58;76.87;;;31.40;;
21356;SDS011;10836;53.068;18.234;2022-12-18T01:01:25;80.60;;;30.17;;
21356;SDS011;10836;53.068;18.234;2022-12-18T01:03:52;78.17;;;31.73;;
21356;SDS011;10836;53.068;18.234;2022-12-18T01:06:19;80.23;;;31.70;;
21356;SDS011;10836;53.068;18.234;2022-12-18T01:08:46;84.97;;;33.93;;
21356;SDS011;10836;53.068;18.234;2022-12-18T01:11:14;79.43;;;29.33;;
21356;SDS011;10836;53.068;18.234;2022-12-18T01:13:43;77.53;;;29.40;;
21356;SDS011;10836;53.068;18.234;2022-12-18T01:16:11;80.73;;;31.93;;
21356;SDS011;10836;53.068;18.234;2022-12-18T01:18:39;83.53;;;32.40;;
21356;SDS011;10836;53.068;18.234;2022-12-18T01:21:11;75.80;;;31.07;;
21356;SDS011;10836;53.068;18.234;2022-12-18T01:23:40;79.77;;;30.80;;
21356;SDS011;10836;53.068;18.234;2022-12-18T01:26:09;76.33;;;29.90;;
21356;SDS011;10836;53.068;18.234;2022-12-18T01:28:38;76.77;;;31.10;;
21356;SDS011;10836;53.068;18.234;2022-12-18T01:31:17;74.77;;;30.50;;
21356;SDS011;10836;53.068;18.234;2022-12-18T01:33:48;81.97;;;31.67;;
21356;SDS011;10836;53.068;18.234;2022-12-18T01:38:48;80.77;;;32.10;;
21356;SDS011;10836;53.068;18.234;2022-12-18T01:41:16;85.57;;;31.33;;
21356;SDS011;10836;53.068;18.234;2022-12-18T01:43:46;84.33;;;30.63;;
21356;SDS011;10836;53.068;18.234;2022-12-18T01:46:18;78.27;;;30.90;;
21356;SDS011;10836;53.068;18.234;2022-12-18T01:48:48;73.73;;;29.27;;
21356;SDS011;10836;53.068;18.234;2022-12-18T01:51:19;71.93;;;29.30;;
21356;SDS011;10836;53.068;18.234;2022-12-18T01:53:47;77.10;;;29.63;;
21356;SDS011;10836;53.068;18.234;2022-12-18T01:56:16;78.20;;;30.53;;
21356;SDS011;10836;53.068;18.234;2022-12-18T01:58:54;77.70;;;29.40;;
21356;SDS011;10836;53.068;18.234;2022-12-18T02:01:26;73.73;;;29.43;;
21356;SDS011;10836;53.068;18.234;2022-12-18T02:04:20;78.93;;;29.80;;
21356;SDS011;10836;53.068;18.234;2022-12-18T02:06:50;68.53;;;28.07;;
21356;SDS011;10836;53.068;18.234;2022-12-18T02:09:46;67.20;;;27.13;;
21356;SDS011;10836;53.068;18.234;2022-12-18T02:12:24;64.07;;;28.10;;
21356;SDS011;10836;53.068;18.234;2022-12-18T02:17:46;67.20;;;27.13;;
21356;SDS011;10836;53.068;18.234;2022-12-18T02:20:38;67.07;;;28.20;;
21356;SDS011;10836;53.068;18.234;2022-12-18T02:26:15;66.70;;;26.80;;
21356;SDS011;10836;53.068;18.234;2022-12-18T02:28:50;68.47;;;27.57;;
21356;SDS011;10836;53.068;18.234;2022-12-18T02:31:22;67.13;;;26.63;;
21356;SDS011;10836;53.068;18.234;2022-12-18T02:33:52;62.50;;;26.83;;
21356;SDS011;10836;53.068;18.234;2022-12-18T02:36:26;64.07;;;26.80;;
21356;SDS011;10836;53.068;18.234;2022-12-18T02:38:55;72.43;;;28.60;;
21356;SDS011;10836;53.068;18.234;2022-12-18T02:41:25;68.77;;;28.70;;
21356;SDS011;10836;53.068;18.234;2022-12-18T02:43:55;64.47;;;27.20;;
21356;SDS011;10836;53.068;18.234;2022-12-18T02:46:35;71.23;;;28.77;;
21356;SDS011;10836;53.068;18.234;2022-12-18T02:49:44;69.87;;;27.80;;
21356;SDS011;10836;53.068;18.234;2022-12-18T02:55:18;57.87;;;25.97;;
21356;SDS011;10836;53.068;18.234;2022-12-18T02:58:04;57.40;;;25.10;;
21356;SDS011;10836;53.068;18.234;2022-12-18T03:00:41;66.63;;;26.17;;
21356;SDS011;10836;53.068;18.234;2022-12-18T03:03:24;58.00;;;24.33;;
21356;SDS011;10836;53.068;18.234;2022-12-18T03:05:58;63.40;;;24.53;;
21356;SDS011;10836;53.068;18.234;2022-12-18T03:08:33;57.07;;;23.63;;
21356;SDS011;10836;53.068;18.234;2022-12-18T03:11:13;57.43;;;22.93;;
21356;SDS011;10836;53.068;18.234;2022-12-18T03:13:46;57.60;;;23.97;;
21356;SDS011;10836;53.068;18.234;2022-12-18T03:16:25;57.80;;;23.50;;
21356;SDS011;10836;53.068;18.234;2022-12-18T03:18:57;55.93;;;23.30;;
21356;SDS011;10836;53.068;18.234;2022-12-18T03:21:29;57.13;;;24.53;;
21356;SDS011;10836;53.068;18.234;2022-12-18T03:24:04;55.73;;;24.23;;
21356;SDS011;10836;53.068;18.234;2022-12-18T03:26:35;56.03;;;24.40;;
21356;SDS011;10836;53.068;18.234;2022-12-18T03:29:09;56.87;;;25.00;;
21356;SDS011;10836;53.068;18.234;2022-12-18T03:31:41;55.83;;;23.47;;
21356;SDS011;10836;53.068;18.234;2022-12-18T03:34:16;55.93;;;22.47;;
21356;SDS011;10836;53.068;18.234;2022-12-18T03:36:49;64.07;;;24.93;;
21356;SDS011;10836;53.068;18.234;2022-12-18T03:39:17;58.57;;;23.33;;
21356;SDS011;10836;53.068;18.234;2022-12-18T03:41:57;47.47;;;21.83;;
21356;SDS011;10836;53.068;18.234;2022-12-18T03:44:44;60.50;;;24.77;;
21356;SDS011;10836;53.068;18.234;2022-12-18T03:47:25;58.80;;;24.87;;
21356;SDS011;10836;53.068;18.234;2022-12-18T03:52:54;56.97;;;23.77;;
21356;SDS011;10836;53.068;18.234;2022-12-18T03:55:22;59.10;;;25.03;;
21356;SDS011;10836;53.068;18.234;2022-12-18T03:57:57;57.30;;;25.67;;
21356;SDS011;10836;53.068;18.234;2022-12-18T04:00:34;55.03;;;24.07;;
21356;SDS011;10836;53.068;18.234;2022-12-18T04:03:06;62.10;;;25.00;;
21356;SDS011;10836;53.068;18.234;2022-12-18T04:05:43;61.20;;;24.77;;
21356;SDS011;10836;53.068;18.234;2022-12-18T04:08:11;56.10;;;23.20;;
21356;SDS011;10836;53.068;18.234;2022-12-18T04:10:42;61.47;;;26.33;;
21356;SDS011;10836;53.068;18.234;2022-12-18T04:13:10;60.70;;;25.90;;
21356;SDS011;10836;53.068;18.234;2022-12-18T04:15:37;61.63;;;24.97;;
21356;SDS011;10836;53.068;18.234;2022-12-18T04:18:09;63.13;;;26.60;;
21356;SDS011;10836;53.068;18.234;2022-12-18T04:20:40;60.80;;;25.07;;
21356;SDS011;10836;53.068;18.234;2022-12-18T04:23:07;58.87;;;24.83;;
21356;SDS011;10836;53.068;18.234;2022-12-18T04:25:36;64.03;;;25.33;;
21356;SDS011;10836;53.068;18.234;2022-12-18T04:28:07;66.53;;;26.90;;
21356;SDS011;10836;53.068;18.234;2022-12-18T04:30:35;59.57;;;25.37;;
21356;SDS011;10836;53.068;18.234;2022-12-18T04:33:02;57.53;;;25.33;;
21356;SDS011;10836;53.068;18.234;2022-12-18T04:35:31;56.77;;;24.63;;
21356;SDS011;10836;53.068;18.234;2022-12-18T04:37:58;62.77;;;25.63;;
21356;SDS011;10836;53.068;18.234;2022-12-18T04:40:26;58.87;;;24.43;;
21356;SDS011;10836;53.068;18.234;2022-12-18T04:42:53;59.17;;;24.47;;
21356;SDS011;10836;53.068;18.234;2022-12-18T04:45:20;61.87;;;26.60;;
21356;SDS011;10836;53.068;18.234;2022-12-18T04:47:47;57.13;;;23.97;;
21356;SDS011;10836;53.068;18.234;2022-12-18T04:50:14;56.73;;;24.07;;
21356;SDS011;10836;53.068;18.234;2022-12-18T04:52:41;64.27;;;25.13;;
21356;SDS011;10836;53.068;18.234;2022-12-18T04:55:08;55.47;;;24.83;;
21356;SDS011;10836;53.068;18.234;2022-12-18T04:57:35;61.37;;;24.70;;
21356;SDS011;10836;53.068;18.234;2022-12-18T05:00:02;56.47;;;23.80;;
21356;SDS011;10836;53.068;18.234;2022-12-18T05:02:29;61.60;;;25.47;;
21356;SDS011;10836;53.068;18.234;2022-12-18T05:04:56;65.87;;;26.73;;
21356;SDS011;10836;53.068;18.234;2022-12-18T05:07:23;61.70;;;26.53;;
21356;SDS011;10836;53.068;18.234;2022-12-18T05:09:50;62.77;;;24.90;;
21356;SDS011;10836;53.068;18.234;2022-12-18T05:12:17;58.17;;;23.63;;
21356;SDS011;10836;53.068;18.234;2022-12-18T05:14:44;59.70;;;24.33;;
21356;SDS011;10836;53.068;18.234;2022-12-18T05:17:11;60.53;;;25.20;;
21356;SDS011;10836;53.068;18.234;2022-12-18T05:19:38;56.03;;;24.27;;
21356;SDS011;10836;53.068;18.234;2022-12-18T05:22:05;56.73;;;24.53;;
21356;SDS011;10836;53.068;18.234;2022-12-18T05:24:35;57.90;;;22.63;;
21356;SDS011;10836;53.068;18.234;2022-12-18T05:27:02;54.23;;;23.20;;
21356;SDS011;10836;53.068;18.234;2022-12-18T05:29:29;64.17;;;23.67;;
21356;SDS011;10836;53.068;18.234;2022-12-18T05:31:56;58.23;;;22.87;;
21356;SDS011;10836;53.068;18.234;2022-12-18T05:34:23;59.07;;;25.03;;
21356;SDS011;10836;53.068;18.234;2022-12-18T05:36:50;57.03;;;23.67;;
21356;SDS011;10836;53.068;18.234;2022-12-18T05:39:17;55.77;;;23.37;;
21356;SDS011;10836;53.068;18.234;2022-12-18T05:41:44;54.57;;;23.97;;
21356;SDS011;10836;53.068;18.234;2022-12-18T05:44:11;62.20;;;26.13;;
21356;SDS011;10836;53.068;18.234;2022-12-18T05:46:38;60.47;;;23.67;;
21356;SDS011;10836;53.068;18.234;2022-12-18T05:49:05;55.20;;;22.40;;
21356;SDS011;10836;53.068;18.234;2022-12-18T05:51:31;56.90;;;23.37;;
21356;SDS011;10836;53.068;18.234;2022-12-18T05:53:58;59.97;;;24.13;;
21356;SDS011;10836;53.068;18.234;2022-12-18T05:56:25;64.40;;;22.27;;
21356;SDS011;10836;53.068;18.234;2022-12-18T05:58:53;59.33;;;24.07;;
21356;SDS011;10836;53.068;18.234;2022-12-18T06:01:22;59.57;;;23.60;;
21356;SDS011;10836;53.068;18.234;2022-12-18T06:03:51;58.53;;;22.67;;
21356;SDS011;10836;53.068;18.234;2022-12-18T06:06:19;61.23;;;23.67;;
21356;SDS011;10836;53.068;18.234;2022-12-18T06:08:52;60.37;;;23.20;;
21356;SDS011;10836;53.068;18.234;2022-12-18T06:11:21;57.93;;;23.33;;
21356;SDS011;10836;53.068;18.234;2022-12-18T06:13:50;61.63;;;22.93;;
21356;SDS011;10836;53.068;18.234;2022-12-18T06:16:24;59.53;;;22.77;;
21356;SDS011;10836;53.068;18.234;2022-12-18T06:18:51;57.43;;;22.10;;
21356;SDS011;10836;53.068;18.234;2022-12-18T06:21:18;51.37;;;21.30;;
21356;SDS011;10836;53.068;18.234;2022-12-18T06:23:45;54.10;;;21.70;;
21356;SDS011;10836;53.068;18.234;2022-12-18T06:26:12;56.93;;;22.57;;
21356;SDS011;10836;53.068;18.234;2022-12-18T06:28:40;54.70;;;23.20;;
21356;SDS011;10836;53.068;18.234;2022-12-18T06:31:07;48.23;;;21.60;;
21356;SDS011;10836;53.068;18.234;2022-12-18T06:33:35;51.90;;;21.57;;
21356;SDS011;10836;53.068;18.234;2022-12-18T06:36:04;59.67;;;23.40;;
21356;SDS011;10836;53.068;18.234;2022-12-18T06:38:32;52.67;;;21.10;;
21356;SDS011;10836;53.068;18.234;2022-12-18T06:40:59;51.00;;;21.87;;
21356;SDS011;10836;53.068;18.234;2022-12-18T06:43:26;59.93;;;23.33;;
21356;SDS011;10836;53.068;18.234;2022-12-18T06:45:59;59.60;;;23.43;;
21356;SDS011;10836;53.068;18.234;2022-12-18T06:48:27;59.63;;;22.60;;
21356;SDS011;10836;53.068;18.234;2022-12-18T06:50:54;53.40;;;23.37;;
21356;SDS011;10836;53.068;18.234;2022-12-18T06:53:21;61.80;;;23.90;;
21356;SDS011;10836;53.068;18.234;2022-12-18T06:55:48;54.53;;;22.60;;
21356;SDS011;10836;53.068;18.234;2022-12-18T06:58:16;59.33;;;23.47;;
21356;SDS011;10836;53.068;18.234;2022-12-18T07:00:43;57.60;;;22.43;;
21356;SDS011;10836;53.068;18.234;2022-12-18T07:03:11;63.27;;;22.30;;
21356;SDS011;10836;53.068;18.234;2022-12-18T07:05:41;76.13;;;26.83;;
21356;SDS011;10836;53.068;18.234;2022-12-18T07:08:08;65.93;;;24.87;;
21356;SDS011;10836;53.068;18.234;2022-12-18T07:10:44;65.07;;;24.00;;
21356;SDS011;10836;53.068;18.234;2022-12-18T07:13:16;66.07;;;24.47;;
21356;SDS011;10836;53.068;18.234;2022-12-18T07:15:43;66.23;;;26.37;;
21356;SDS011;10836;53.068;18.234;2022-12-18T07:18:11;74.93;;;26.90;;
21356;SDS011;10836;53.068;18.234;2022-12-18T07:20:38;78.17;;;29.13;;
21356;SDS011;10836;53.068;18.234;2022-12-18T07:23:05;93.97;;;30.60;;
21356;SDS011;10836;53.068;18.234;2022-12-18T07:25:35;85.87;;;31.10;;
21356;SDS011;10836;53.068;18.234;2022-12-18T07:28:03;81.87;;;28.20;;
21356;SDS011;10836;53.068;18.234;2022-12-18T07:30:31;82.63;;;30.33;;
21356;SDS011;10836;53.068;18.234;2022-12-18T07:32:58;79.00;;;27.17;;
21356;SDS011;10836;53.068;18.234;2022-12-18T07:35:24;87.70;;;30.43;;
21356;SDS011;10836;53.068;18.234;2022-12-18T07:37:51;88.33;;;29.43;;
21356;SDS011;10836;53.068;18.234;2022-12-18T07:40:18;84.73;;;29.60;;
21356;SDS011;10836;53.068;18.234;2022-12-18T07:42:45;78.53;;;28.23;;
21356;SDS011;10836;53.068;18.234;2022-12-18T07:45:12;86.33;;;29.03;;
21356;SDS011;10836;53.068;18.234;2022-12-18T07:47:39;74.53;;;28.10;;
21356;SDS011;10836;53.068;18.234;2022-12-18T07:50:07;92.27;;;30.60;;
21356;SDS011;10836;53.068;18.234;2022-12-18T07:52:35;89.87;;;30.83;;
21356;SDS011;10836;53.068;18.234;2022-12-18T07:55:02;88.07;;;28.83;;
21356;SDS011;10836;53.068;18.234;2022-12-18T07:57:29;73.00;;;28.13;;
21356;SDS011;10836;53.068;18.234;2022-12-18T08:00:16;83.17;;;28.07;;
21356;SDS011;10836;53.068;18.234;2022-12-18T08:02:43;83.10;;;29.37;;
21356;SDS011;10836;53.068;18.234;2022-12-18T08:05:10;79.43;;;25.87;;
21356;SDS011;10836;53.068;18.234;2022-12-18T08:07:37;75.80;;;26.97;;
21356;SDS011;10836;53.068;18.234;2022-12-18T08:10:04;72.10;;;26.83;;
21356;SDS011;10836;53.068;18.234;2022-12-18T08:12:32;73.60;;;27.03;;
21356;SDS011;10836;53.068;18.234;2022-12-18T08:14:59;82.07;;;26.63;;
21356;SDS011;10836;53.068;18.234;2022-12-18T08:17:26;71.53;;;28.13;;
21356;SDS011;10836;53.068;18.234;2022-12-18T08:19:52;74.43;;;26.83;;
21356;SDS011;10836;53.068;18.234;2022-12-18T08:22:19;72.47;;;27.10;;
21356;SDS011;10836;53.068;18.234;2022-12-18T08:24:46;69.27;;;26.93;;
21356;SDS011;10836;53.068;18.234;2022-12-18T08:27:13;67.90;;;26.00;;
21356;SDS011;10836;53.068;18.234;2022-12-18T08:29:56;57.10;;;24.87;;
21356;SDS011;10836;53.068;18.234;2022-12-18T08:32:24;58.17;;;23.63;;
21356;SDS011;10836;53.068;18.234;2022-12-18T08:34:52;64.50;;;25.03;;
21356;SDS011;10836;53.068;18.234;2022-12-18T08:37:19;58.30;;;22.13;;
21356;SDS011;10836;53.068;18.234;2022-12-18T08:39:46;57.10;;;22.50;;
21356;SDS011;10836;53.068;18.234;2022-12-18T08:42:14;60.47;;;22.30;;
21356;SDS011;10836;53.068;18.234;2022-12-18T08:44:59;53.47;;;21.93;;
21356;SDS011;10836;53.068;18.234;2022-12-18T08:47:26;55.90;;;21.47;;
21356;SDS011;10836;53.068;18.234;2022-12-18T08:49:53;51.87;;;21.23;;
21356;SDS011;10836;53.068;18.234;2022-12-18T08:52:20;51.17;;;20.90;;
21356;SDS011;10836;53.068;18.234;2022-12-18T08:54:47;55.07;;;21.83;;
21356;SDS011;10836;53.068;18.234;2022-12-18T08:57:14;53.50;;;21.40;;
21356;SDS011;10836;53.068;18.234;2022-12-18T08:59:41;57.33;;;23.63;;
21356;SDS011;10836;53.068;18.234;2022-12-18T09:02:11;53.27;;;21.70;;
21356;SDS011;10836;53.068;18.234;2022-12-18T09:04:38;51.97;;;21.27;;
21356;SDS011;10836;53.068;18.234;2022-12-18T09:07:06;59.63;;;22.70;;
21356;SDS011;10836;53.068;18.234;2022-12-18T09:09:33;53.70;;;20.53;;
21356;SDS011;10836;53.068;18.234;2022-12-18T09:12:00;60.57;;;25.67;;
21356;SDS011;10836;53.068;18.234;2022-12-18T09:14:27;51.37;;;21.10;;
21356;SDS011;10836;53.068;18.234;2022-12-18T09:16:54;57.13;;;23.07;;
21356;SDS011;10836;53.068;18.234;2022-12-18T09:19:21;55.30;;;23.17;;
21356;SDS011;10836;53.068;18.234;2022-12-18T09:21:48;56.63;;;22.47;;
21356;SDS011;10836;53.068;18.234;2022-12-18T09:24:15;63.47;;;23.67;;
21356;SDS011;10836;53.068;18.234;2022-12-18T09:26:43;63.33;;;24.37;;
21356;SDS011;10836;53.068;18.234;2022-12-18T09:29:14;64.03;;;25.23;;
21356;SDS011;10836;53.068;18.234;2022-12-18T09:31:45;53.67;;;22.77;;
21356;SDS011;10836;53.068;18.234;2022-12-18T09:34:12;53.57;;;22.70;;
21356;SDS011;10836;53.068;18.234;2022-12-18T09:36:39;53.87;;;21.60;;
21356;SDS011;10836;53.068;18.234;2022-12-18T09:39:06;57.80;;;24.40;;
21356;SDS011;10836;53.068;18.234;2022-12-18T09:49:50;49.30;;;20.23;;
21356;SDS011;10836;53.068;18.234;2022-12-18T09:52:35;68.40;;;24.30;;
21356;SDS011;10836;53.068;18.234;2022-12-18T09:55:25;110.87;;;23.23;;
21356;SDS011;10836;53.068;18.234;2022-12-18T10:00:36;57.00;;;22.57;;
21356;SDS011;10836;53.068;18.234;2022-12-18T10:03:05;61.63;;;23.53;;
21356;SDS011;10836;53.068;18.234;2022-12-18T10:08:25;61.43;;;24.87;;
21356;SDS011;10836;53.068;18.234;2022-12-18T10:11:16;74.40;;;25.63;;
21356;SDS011;10836;53.068;18.234;2022-12-18T10:14:20;87.03;;;25.40;;
21356;SDS011;10836;53.068;18.234;2022-12-18T10:19:37;61.53;;;24.97;;
21356;SDS011;10836;53.068;18.234;2022-12-18T10:22:21;57.40;;;24.50;;
21356;SDS011;10836;53.068;18.234;2022-12-18T10:27:25;61.63;;;25.17;;
21356;SDS011;10836;53.068;18.234;2022-12-18T10:29:53;60.23;;;23.23;;
21356;SDS011;10836;53.068;18.234;2022-12-18T10:32:22;55.00;;;21.73;;
21356;SDS011;10836;53.068;18.234;2022-12-18T10:34:52;58.50;;;22.83;;
21356;SDS011;10836;53.068;18.234;2022-12-18T10:37:26;51.57;;;22.50;;
21356;SDS011;10836;53.068;18.234;2022-12-18T10:40:12;58.30;;;24.20;;
21356;SDS011;10836;53.068;18.234;2022-12-18T10:43:02;65.63;;;24.53;;
21356;SDS011;10836;53.068;18.234;2022-12-18T10:45:38;51.77;;;23.03;;
21356;SDS011;10836;53.068;18.234;2022-12-18T10:48:17;59.43;;;22.13;;
21356;SDS011;10836;53.068;18.234;2022-12-18T10:50:46;62.03;;;23.53;;
21356;SDS011;10836;53.068;18.234;2022-12-18T10:53:36;73.53;;;24.23;;
21356;SDS011;10836;53.068;18.234;2022-12-18T10:56:06;56.20;;;22.23;;
21356;SDS011;10836;53.068;18.234;2022-12-18T10:58:34;63.33;;;24.50;;
21356;SDS011;10836;53.068;18.234;2022-12-18T11:01:13;66.87;;;24.83;;
21356;SDS011;10836;53.068;18.234;2022-12-18T11:06:17;66.00;;;23.57;;
21356;SDS011;10836;53.068;18.234;2022-12-18T11:09:01;65.37;;;24.07;;
21356;SDS011;10836;53.068;18.234;2022-12-18T11:11:40;67.63;;;25.33;;
21356;SDS011;10836;53.068;18.234;2022-12-18T11:14:18;74.67;;;28.60;;
21356;SDS011;10836;53.068;18.234;2022-12-18T11:16:49;69.40;;;27.10;;
21356;SDS011;10836;53.068;18.234;2022-12-18T11:19:38;79.27;;;28.10;;
21356;SDS011;10836;53.068;18.234;2022-12-18T11:22:21;65.80;;;27.37;;
21356;SDS011;10836;53.068;18.234;2022-12-18T11:24:52;79.10;;;29.97;;
21356;SDS011;10836;53.068;18.234;2022-12-18T11:28:03;74.70;;;27.53;;
21356;SDS011;10836;53.068;18.234;2022-12-18T11:30:33;94.90;;;29.73;;
21356;SDS011;10836;53.068;18.234;2022-12-18T11:35:47;82.63;;;30.50;;
21356;SDS011;10836;53.068;18.234;2022-12-18T11:40:58;84.23;;;29.73;;
21356;SDS011;10836;53.068;18.234;2022-12-18T11:43:45;91.60;;;33.23;;
21356;SDS011;10836;53.068;18.234;2022-12-18T11:46:51;89.50;;;32.20;;
21356;SDS011;10836;53.068;18.234;2022-12-18T11:49:24;78.33;;;28.53;;
21356;SDS011;10836;53.068;18.234;2022-12-18T11:51:56;75.23;;;28.53;;
21356;SDS011;10836;53.068;18.234;2022-12-18T11:54:45;83.70;;;30.53;;
21356;SDS011;10836;53.068;18.234;2022-12-18T11:59:46;85.93;;;29.80;;
21356;SDS011;10836;53.068;18.234;2022-12-18T12:08:04;82.17;;;31.27;;
21356;SDS011;10836;53.068;18.234;2022-12-18T12:13:23;85.77;;;31.07;;
21356;SDS011;10836;53.068;18.234;2022-12-18T12:18:41;92.50;;;30.83;;
21356;SDS011;10836;53.068;18.234;2022-12-18T12:21:41;87.57;;;29.40;;
21356;SDS011;10836;53.068;18.234;2022-12-18T12:29:55;82.13;;;29.73;;
21356;SDS011;10836;53.068;18.234;2022-12-18T12:32:30;84.17;;;30.13;;
21356;SDS011;10836;53.068;18.234;2022-12-18T12:40:23;86.60;;;30.17;;
21356;SDS011;10836;53.068;18.234;2022-12-18T12:46:16;93.57;;;31.30;;
21356;SDS011;10836;53.068;18.234;2022-12-18T12:48:49;89.43;;;30.60;;
21356;SDS011;10836;53.068;18.234;2022-12-18T12:51:20;85.27;;;30.70;;
21356;SDS011;10836;53.068;18.234;2022-12-18T12:53:49;89.30;;;30.73;;
21356;SDS011;10836;53.068;18.234;2022-12-18T12:56:20;98.17;;;33.77;;
21356;SDS011;10836;53.068;18.234;2022-12-18T13:07:29;89.30;;;30.90;;
21356;SDS011;10836;53.068;18.234;2022-12-18T13:18:21;83.83;;;30.43;;
21356;SDS011;10836;53.068;18.234;2022-12-18T13:20:50;85.47;;;32.67;;
21356;SDS011;10836;53.068;18.234;2022-12-18T13:23:34;98.57;;;35.00;;
21356;SDS011;10836;53.068;18.234;2022-12-18T13:31:00;96.60;;;36.37;;
21356;SDS011;10836;53.068;18.234;2022-12-18T13:38:36;98.83;;;35.80;;
21356;SDS011;10836;53.068;18.234;2022-12-18T13:43:54;102.13;;;37.20;;
21356;SDS011;10836;53.068;18.234;2022-12-18T13:46:46;96.27;;;36.80;;
21356;SDS011;10836;53.068;18.234;2022-12-18T13:49:21;104.03;;;37.07;;
21356;SDS011;10836;53.068;18.234;2022-12-18T13:51:52;104.37;;;36.87;;
21356;SDS011;10836;53.068;18.234;2022-12-18T13:54:33;103.50;;;34.97;;
21356;SDS011;10836;53.068;18.234;2022-12-18T13:57:03;124.33;;;44.30;;
21356;SDS011;10836;53.068;18.234;2022-12-18T14:02:00;108.87;;;39.80;;
21356;SDS011;10836;53.068;18.234;2022-12-18T14:04:37;121.37;;;38.40;;
21356;SDS011;10836;53.068;18.234;2022-12-18T14:07:05;149.97;;;48.83;;
21356;SDS011;10836;53.068;18.234;2022-12-18T14:09:43;114.33;;;39.07;;
21356;SDS011;10836;53.068;18.234;2022-12-18T14:12:17;109.67;;;37.43;;
21356;SDS011;10836;53.068;18.234;2022-12-18T14:15:16;127.90;;;44.53;;
21356;SDS011;10836;53.068;18.234;2022-12-18T14:18:03;152.17;;;48.83;;
21356;SDS011;10836;53.068;18.234;2022-12-18T14:20:36;108.87;;;36.33;;
21356;SDS011;10836;53.068;18.234;2022-12-18T14:25:58;118.30;;;42.90;;
21356;SDS011;10836;53.068;18.234;2022-12-18T14:28:31;136.80;;;46.30;;
21356;SDS011;10836;53.068;18.234;2022-12-18T14:30:58;128.83;;;44.03;;
21356;SDS011;10836;53.068;18.234;2022-12-18T14:33:26;130.80;;;43.50;;
21356;SDS011;10836;53.068;18.234;2022-12-18T14:35:56;130.20;;;42.43;;
21356;SDS011;10836;53.068;18.234;2022-12-18T14:38:30;109.90;;;38.70;;
21356;SDS011;10836;53.068;18.234;2022-12-18T14:40:59;110.70;;;36.67;;
21356;SDS011;10836;53.068;18.234;2022-12-18T14:43:28;126.10;;;44.27;;
21356;SDS011;10836;53.068;18.234;2022-12-18T14:45:58;132.97;;;42.83;;
21356;SDS011;10836;53.068;18.234;2022-12-18T14:51:18;128.37;;;42.63;;
21356;SDS011;10836;53.068;18.234;2022-12-18T14:53:54;129.03;;;39.63;;
21356;SDS011;10836;53.068;18.234;2022-12-18T14:56:24;114.20;;;35.50;;
21356;SDS011;10836;53.068;18.234;2022-12-18T14:58:54;123.30;;;41.37;;
21356;SDS011;10836;53.068;18.234;2022-12-18T15:01:25;128.20;;;40.10;;
21356;SDS011;10836;53.068;18.234;2022-12-18T15:04:00;142.97;;;41.80;;
21356;SDS011;10836;53.068;18.234;2022-12-18T15:08:59;141.07;;;45.50;;
21356;SDS011;10836;53.068;18.234;2022-12-18T15:13:59;144.37;;;45.40;;
21356;SDS011;10836;53.068;18.234;2022-12-18T15:16:27;146.20;;;41.60;;
21356;SDS011;10836;53.068;18.234;2022-12-18T15:18:54;138.80;;;39.67;;
21356;SDS011;10836;53.068;18.234;2022-12-18T15:21:21;137.97;;;44.87;;
21356;SDS011;10836;53.068;18.234;2022-12-18T15:26:17;145.13;;;45.37;;
21356;SDS011;10836;53.068;18.234;2022-12-18T15:28:50;144.50;;;45.60;;
21356;SDS011;10836;53.068;18.234;2022-12-18T15:31:32;182.07;;;56.80;;
21356;SDS011;10836;53.068;18.234;2022-12-18T15:36:34;148.17;;;46.30;;
21356;SDS011;10836;53.068;18.234;2022-12-18T15:39:03;174.43;;;55.27;;
21356;SDS011;10836;53.068;18.234;2022-12-18T15:41:33;122.73;;;43.27;;
21356;SDS011;10836;53.068;18.234;2022-12-18T15:44:02;143.20;;;44.37;;
21356;SDS011;10836;53.068;18.234;2022-12-18T15:46:43;131.03;;;42.60;;
21356;SDS011;10836;53.068;18.234;2022-12-18T15:49:10;144.27;;;45.47;;
21356;SDS011;10836;53.068;18.234;2022-12-18T15:51:39;128.50;;;41.23;;
21356;SDS011;10836;53.068;18.234;2022-12-18T15:54:08;136.50;;;42.17;;
21356;SDS011;10836;53.068;18.234;2022-12-18T15:56:39;139.53;;;44.57;;
21356;SDS011;10836;53.068;18.234;2022-12-18T15:59:25;127.00;;;45.27;;
21356;SDS011;10836;53.068;18.234;2022-12-18T16:01:52;141.77;;;44.30;;
21356;SDS011;10836;53.068;18.234;2022-12-18T16:04:21;148.60;;;47.37;;
21356;SDS011;10836;53.068;18.234;2022-12-18T16:06:48;141.03;;;45.07;;
21356;SDS011;10836;53.068;18.234;2022-12-18T16:09:36;149.80;;;45.50;;
21356;SDS011;10836;53.068;18.234;2022-12-18T16:12:04;153.13;;;48.70;;
21356;SDS011;10836;53.068;18.234;2022-12-18T16:14:32;169.07;;;49.53;;
21356;SDS011;10836;53.068;18.234;2022-12-18T16:17:00;160.93;;;51.23;;
21356;SDS011;10836;53.068;18.234;2022-12-18T16:19:30;149.97;;;46.27;;
21356;SDS011;10836;53.068;18.234;2022-12-18T16:21:57;179.87;;;53.90;;
21356;SDS011;10836;53.068;18.234;2022-12-18T16:24:29;191.17;;;56.30;;
21356;SDS011;10836;53.068;18.234;2022-12-18T16:26:58;217.33;;;64.30;;
21356;SDS011;10836;53.068;18.234;2022-12-18T16:29:27;209.57;;;62.27;;